sensor_id;sensor_type;location;lat;lon;timestamp;pressure;altitude;pressure_sealevel;temperature;humidity
78719;BME280;68046;53.334;9.538;2024-02-21T00:02:10;101614.03;;;7.81;100.00
78719;BME280;68046;53.334;9.538;2024-02-21T00:04:35;101613.06;;;7.78;100.00
78719;BME280;68046;53.334;9.538;2024-02-21T00:07:01;101616.50;;;7.77;100.00
78719;BME280;68046;53.334;9.538;2024-02-21T00:09:27;101615.69;;;7.78;100.00
78719;BME280;68046;53.334;9.538;2024-02-21T00:11:52;101616.66;;;7.81;100.00
78719;BME280;68046;53.334;9.538;2024-02-21T00:14:18;101618.28;;;7.78;100.00
78719;BME280;68046;53.334;9.538;2024-02-21T00:16:43;101607.03;;;7.79;100.00
78719;BME280;68046;53.334;9.538;2024-02-21T00:19:10;101600.16;;;7.82;100.00
78719;BME280;68046;53.334;9.538;2024-02-21T00:21:36;101588.16;;;7.85;100.00
78719;BME280;68046;53.334;9.538;2024-02-21T00:24:01;101589.69;;;7.82;100.00
78719;BME280;68046;53.334;9.538;2024-02-21T00:26:27;101594.94;;;7.82;100.00
78719;BME280;68046;53.334;9.538;2024-02-21T00:28:53;101594.94;;;7.82;100.00
78719;BME280;68046;53.334;9.538;2024-02-21T00:31:18;101582.84;;;7.84;100.00
78719;BME280;68046;53.334;9.538;2024-02-21T00:33:43;101580.31;;;7.85;100.00
78719;BME280;68046;53.334;9.538;2024-02-21T00:36:10;101578.59;;;7.86;100.00
78719;BME280;68046;53.334;9.538;2024-02-21T00:38:36;101568.00;;;7.83;100.00
78719;BME280;68046;53.334;9.538;2024-02-21T00:41:03;101566.41;;;7.86;100.00
78719;BME280;68046;53.334;9.538;2024-02-21T00:43:28;101568.34;;;7.90;100.00
78719;BME280;68046;53.334;9.538;2024-02-21T00:45:54;101570.16;;;7.91;100.00
78719;BME280;68046;53.334;9.538;2024-02-21T00:48:19;101570.16;;;7.91;100.00
78719;BME280;68046;53.334;9.538;2024-02-21T00:50:45;101569.38;;;7.94;100.00
78719;BME280;68046;53.334;9.538;2024-02-21T00:53:12;101571.19;;;7.95;100.00
78719;BME280;68046;53.334;9.538;2024-02-21T00:55:37;101562.50;;;7.96;100.00
78719;BME280;68046;53.334;9.538;2024-02-21T00:58:03;101563.25;;;7.93;100.00
78719;BME280;68046;53.334;9.538;2024-02-21T01:00:28;101563.25;;;7.93;100.00
78719;BME280;68046;53.334;9.538;2024-02-21T01:02:54;101544.22;;;7.96;100.00
78719;BME280;68046;53.334;9.538;2024-02-21T01:05:19;101540.84;;;7.98;100.00
78719;BME280;68046;53.334;9.538;2024-02-21T01:07:45;101539.22;;;8.00;100.00
78719;BME280;68046;53.334;9.538;2024-02-21T01:10:12;101536.66;;;8.02;100.00
78719;BME280;68046;53.334;9.538;2024-02-21T01:12:37;101532.19;;;7.99;100.00
78719;BME280;68046;53.334;9.538;2024-02-21T01:15:03;101527.78;;;7.98;100.00
78719;BME280;68046;53.334;9.538;2024-02-21T01:17:29;101529.50;;;7.98;100.00
78719;BME280;68046;53.334;9.538;2024-02-21T01:19:54;101534.59;;;7.95;100.00
78719;BME280;68046;53.334;9.538;2024-02-21T01:22:20;101533.06;;;8.00;100.00
78719;BME280;68046;53.334;9.538;2024-02-21T01:24:45;101536.59;;;8.00;100.00
78719;BME280;68046;53.334;9.538;2024-02-21T01:27:12;101528.47;;;7.94;100.00
78719;BME280;68046;53.334;9.538;2024-02-21T01:29:37;101533.06;;;8.00;100.00
78719;BME280;68046;53.334;9.538;2024-02-21T01:32:03;101513.84;;;7.98;100.00
78719;BME280;68046;53.334;9.538;2024-02-21T01:34:29;101518.31;;;8.00;100.00
78719;BME280;68046;53.334;9.538;2024-02-21T01:36:54;101516.50;;;7.99;100.00
78719;BME280;68046;53.334;9.538;2024-02-21T01:39:20;101513.84;;;7.98;100.00
78719;BME280;68046;53.334;9.538;2024-02-21T01:41:45;101502.41;;;7.96;100.00
78719;BME280;68046;53.334;9.538;2024-02-21T01:44:13;101497.94;;;7.93;100.00
78719;BME280;68046;53.334;9.538;2024-02-21T01:46:38;101500.63;;;7.95;100.00
78719;BME280;68046;53.334;9.538;2024-02-21T01:49:05;101498.91;;;7.95;100.00
78719;BME280;68046;53.334;9.538;2024-02-21T01:51:30;101493.56;;;7.92;100.00
78719;BME280;68046;53.334;9.538;2024-02-21T01:53:56;101483.16;;;7.94;100.00
78719;BME280;68046;53.334;9.538;2024-02-21T01:56:23;101477.00;;;7.92;100.00
78719;BME280;68046;53.334;9.538;2024-02-21T01:58:49;101471.91;;;7.95;100.00
78719;BME280;68046;53.334;9.538;2024-02-21T02:01:17;101465.44;;;7.87;100.00
78719;BME280;68046;53.334;9.538;2024-02-21T02:03:45;101455.22;;;7.91;100.00
78719;BME280;68046;53.334;9.538;2024-02-21T02:06:10;101451.66;;;7.91;100.00
78719;BME280;68046;53.334;9.538;2024-02-21T02:08:36;101430.78;;;7.91;100.00
78719;BME280;68046;53.334;9.538;2024-02-21T02:11:02;101429.22;;;7.94;100.00
78719;BME280;68046;53.334;9.538;2024-02-21T02:13:28;101427.50;;;7.95;100.00
78719;BME280;68046;53.334;9.538;2024-02-21T02:15:53;101422.25;;;7.95;100.00
78719;BME280;68046;53.334;9.538;2024-02-21T02:18:20;101416.34;;;7.99;100.00
78719;BME280;68046;53.334;9.538;2024-02-21T02:20:46;101405.03;;;8.00;100.00
78719;BME280;68046;53.334;9.538;2024-02-21T02:25:40;101393.53;;;7.95;100.00
78719;BME280;68046;53.334;9.538;2024-02-21T02:28:06;101398.88;;;7.98;100.00
78719;BME280;68046;53.334;9.538;2024-02-21T02:30:32;101384.09;;;7.98;100.00
78719;BME280;68046;53.334;9.538;2024-02-21T02:32:58;101376.19;;;7.97;100.00
78719;BME280;68046;53.334;9.538;2024-02-21T02:35:23;101386.63;;;7.97;100.00
78719;BME280;68046;53.334;9.538;2024-02-21T02:37:49;101384.97;;;7.99;100.00
78719;BME280;68046;53.334;9.538;2024-02-21T02:40:14;101367.53;;;7.98;100.00
78719;BME280;68046;53.334;9.538;2024-02-21T02:42:41;101363.19;;;7.98;100.00
78719;BME280;68046;53.334;9.538;2024-02-21T02:45:07;101359.13;;;8.05;100.00
78719;BME280;68046;53.334;9.538;2024-02-21T02:47:33;101352.03;;;8.02;100.00
78719;BME280;68046;53.334;9.538;2024-02-21T02:49:59;101364.22;;;8.02;100.00
78719;BME280;68046;53.334;9.538;2024-02-21T02:52:24;101370.94;;;7.97;100.00
78719;BME280;68046;53.334;9.538;2024-02-21T02:54:50;101378.13;;;8.01;100.00
78719;BME280;68046;53.334;9.538;2024-02-21T02:57:15;101379.06;;;8.03;100.00
78719;BME280;68046;53.334;9.538;2024-02-21T02:59:42;101382.63;;;8.05;100.00
78719;BME280;68046;53.334;9.538;2024-02-21T03:02:07;101381.66;;;8.03;100.00
78719;BME280;68046;53.334;9.538;2024-02-21T03:04:33;101387.72;;;8.02;100.00
78719;BME280;68046;53.334;9.538;2024-02-21T03:06:58;101379.97;;;8.04;100.00
78719;BME280;68046;53.334;9.538;2024-02-21T03:09:24;101376.50;;;8.05;100.00
78719;BME280;68046;53.334;9.538;2024-02-21T03:11:49;101382.59;;;8.04;100.00
78719;BME280;68046;53.334;9.538;2024-02-21T03:14:15;101377.28;;;8.02;100.00
78719;BME280;68046;53.334;9.538;2024-02-21T03:16:42;101378.13;;;8.01;100.00
78719;BME280;68046;53.334;9.538;2024-02-21T03:19:07;101371.22;;;8.03;100.00
78719;BME280;68046;53.334;9.538;2024-02-21T03:21:33;101381.78;;;8.06;100.00
78719;BME280;68046;53.334;9.538;2024-02-21T03:23:58;101379.00;;;8.01;100.00
78719;BME280;68046;53.334;9.538;2024-02-21T03:26:24;101372.75;;;7.98;100.00
78719;BME280;68046;53.334;9.538;2024-02-21T03:28:49;101381.53;;;8.00;100.00
78719;BME280;68046;53.334;9.538;2024-02-21T03:31:14;101379.00;;;8.01;100.00
78719;BME280;68046;53.334;9.538;2024-02-21T03:33:42;101372.88;;;8.01;100.00
78719;BME280;68046;53.334;9.538;2024-02-21T03:36:13;101379.06;;;8.03;100.00
78719;BME280;68046;53.334;9.538;2024-02-21T03:38:38;101376.38;;;8.01;100.00
78719;BME280;68046;53.334;9.538;2024-02-21T03:41:04;101384.41;;;8.06;100.00
78719;BME280;68046;53.334;9.538;2024-02-21T03:43:29;101374.53;;;7.99;100.00
78719;BME280;68046;53.334;9.538;2024-02-21T03:45:55;101385.13;;;8.02;100.00
78719;BME280;68046;53.334;9.538;2024-02-21T03:48:20;101379.84;;;8.00;100.00
78719;BME280;68046;53.334;9.538;2024-02-21T03:50:47;101379.13;;;8.05;100.00
78719;BME280;68046;53.334;9.538;2024-02-21T03:53:13;101386.13;;;8.06;100.00
78719;BME280;68046;53.334;9.538;2024-02-21T03:55:38;101380.72;;;8.01;100.00
78719;BME280;68046;53.334;9.538;2024-02-21T03:58:04;101375.38;;;7.98;100.00
78719;BME280;68046;53.334;9.538;2024-02-21T04:00:29;101376.19;;;7.97;100.00
78719;BME280;68046;53.334;9.538;2024-02-21T04:02:55;101386.75;;;8.00;100.00
78719;BME280;68046;53.334;9.538;2024-02-21T04:05:20;101385.94;;;8.01;100.00
78719;BME280;68046;53.334;9.538;2024-02-21T04:07:47;101377.84;;;7.95;100.00
78719;BME280;68046;53.334;9.538;2024-02-21T04:10:13;101383.88;;;7.94;100.00
78719;BME280;68046;53.334;9.538;2024-02-21T04:12:38;101381.00;;;7.88;100.00
78719;BME280;68046;53.334;9.538;2024-02-21T04:15:04;101375.66;;;7.85;100.00
78719;BME280;68046;53.334;9.538;2024-02-21T04:17:30;101378.97;;;7.81;100.00
78719;BME280;68046;53.334;9.538;2024-02-21T04:20:04;101368.66;;;7.84;100.00
78719;BME280;68046;53.334;9.538;2024-02-21T04:22:29;101365.09;;;7.82;100.00
78719;BME280;68046;53.334;9.538;2024-02-21T04:24:56;101357.97;;;7.77;100.00
78719;BME280;68046;53.334;9.538;2024-02-21T04:27:22;101361.28;;;7.73;100.00
78719;BME280;68046;53.334;9.538;2024-02-21T04:29:47;101354.38;;;7.75;100.00
78719;BME280;68046;53.334;9.538;2024-02-21T04:32:13;101356.84;;;7.72;100.00
78719;BME280;68046;53.334;9.538;2024-02-21T04:34:40;101348.13;;;7.72;100.00
78719;BME280;68046;53.334;9.538;2024-02-21T04:37:06;101349.03;;;7.72;100.00
78719;BME280;68046;53.334;9.538;2024-02-21T04:39:31;101348.00;;;7.69;100.00
78719;BME280;68046;53.334;9.538;2024-02-21T04:41:58;101357.69;;;7.71;100.00
78719;BME280;68046;53.334;9.538;2024-02-21T04:44:24;101342.03;;;7.71;100.00
78719;BME280;68046;53.334;9.538;2024-02-21T04:46:49;101351.50;;;7.69;100.00
78719;BME280;68046;53.334;9.538;2024-02-21T04:49:15;101340.13;;;7.67;100.00
78719;BME280;68046;53.334;9.538;2024-02-21T04:51:40;101339.28;;;7.68;100.00
78719;BME280;68046;53.334;9.538;2024-02-21T04:54:06;101343.53;;;7.66;100.00
78719;BME280;68046;53.334;9.538;2024-02-21T04:56:31;101337.44;;;7.66;100.00
78719;BME280;68046;53.334;9.538;2024-02-21T04:58:58;101332.22;;;7.66;100.00
78719;BME280;68046;53.334;9.538;2024-02-21T05:01:24;101327.88;;;7.66;100.00
78719;BME280;68046;53.334;9.538;2024-02-21T05:03:49;101328.75;;;7.67;100.00
78719;BME280;68046;53.334;9.538;2024-02-21T05:06:15;101326.09;;;7.65;100.00
78719;BME280;68046;53.334;9.538;2024-02-21T05:08:40;101322.66;;;7.66;100.00
78719;BME280;68046;53.334;9.538;2024-02-21T05:11:06;101325.25;;;7.66;100.00
78719;BME280;68046;53.334;9.538;2024-02-21T05:13:31;101338.41;;;7.68;100.00
78719;BME280;68046;53.334;9.538;2024-02-21T05:15:58;101332.34;;;7.69;100.00
78719;BME280;68046;53.334;9.538;2024-02-21T05:18:24;101320.88;;;7.65;100.00
78719;BME280;68046;53.334;9.538;2024-02-21T05:20:49;101328.75;;;7.67;100.00
78719;BME280;68046;53.334;9.538;2024-02-21T05:23:14;101325.97;;;7.62;100.00
78719;BME280;68046;53.334;9.538;2024-02-21T05:25:40;101321.75;;;7.66;100.00
78719;BME280;68046;53.334;9.538;2024-02-21T05:28:05;101322.53;;;7.63;100.00
78719;BME280;68046;53.334;9.538;2024-02-21T05:30:31;101320.13;;;7.68;100.00
78719;BME280;68046;53.334;9.538;2024-02-21T05:32:58;101318.19;;;7.64;100.00
78719;BME280;68046;53.334;9.538;2024-02-21T05:35:26;101313.88;;;7.64;100.00
78719;BME280;68046;53.334;9.538;2024-02-21T05:37:52;101303.31;;;7.61;100.00
78719;BME280;68046;53.334;9.538;2024-02-21T05:40:17;101308.56;;;7.63;100.00
78719;BME280;68046;53.334;9.538;2024-02-21T05:42:43;101305.97;;;7.63;100.00
78719;BME280;68046;53.334;9.538;2024-02-21T05:45:09;101320.66;;;7.61;100.00
78719;BME280;68046;53.334;9.538;2024-02-21T05:47:34;101314.75;;;7.65;100.00
78719;BME280;68046;53.334;9.538;2024-02-21T05:50:01;101315.53;;;7.62;100.00
78719;BME280;68046;53.334;9.538;2024-02-21T05:52:27;101306.81;;;7.62;100.00
78719;BME280;68046;53.334;9.538;2024-02-21T05:54:52;101312.06;;;7.63;100.00
78719;BME280;68046;53.334;9.538;2024-02-21T05:57:18;101309.41;;;7.62;100.00
78719;BME280;68046;53.334;9.538;2024-02-21T05:59:43;101309.47;;;7.63;100.00
78719;BME280;68046;53.334;9.538;2024-02-21T06:02:09;101304.88;;;7.57;100.00
78719;BME280;68046;53.334;9.538;2024-02-21T06:04:35;101298.88;;;7.60;100.00
78719;BME280;68046;53.334;9.538;2024-02-21T06:07:02;101304.94;;;7.59;100.00
78719;BME280;68046;53.334;9.538;2024-02-21T06:09:27;101316.28;;;7.60;100.00
78719;BME280;68046;53.334;9.538;2024-02-21T06:11:53;101323.41;;;7.64;100.00
78719;BME280;68046;53.334;9.538;2024-02-21T06:14:19;101314.56;;;7.60;100.00
78719;BME280;68046;53.334;9.538;2024-02-21T06:16:45;101314.63;;;7.62;100.00
78719;BME280;68046;53.334;9.538;2024-02-21T06:19:10;101317.16;;;7.60;100.00
78719;BME280;68046;53.334;9.538;2024-02-21T06:21:36;101319.78;;;7.60;100.00
78719;BME280;68046;53.334;9.538;2024-02-21T06:24:03;101317.28;;;7.63;100.00
78719;BME280;68046;53.334;9.538;2024-02-21T06:26:28;101322.53;;;7.63;100.00
78719;BME280;68046;53.334;9.538;2024-02-21T06:28:54;101321.63;;;7.63;100.00
78719;BME280;68046;53.334;9.538;2024-02-21T06:31:19;101313.88;;;7.64;100.00
78719;BME280;68046;53.334;9.538;2024-02-21T06:33:45;101318.19;;;7.64;100.00
78719;BME280;68046;53.334;9.538;2024-02-21T06:36:10;101312.22;;;7.66;100.00
78719;BME280;68046;53.334;9.538;2024-02-21T06:38:36;101313.88;;;7.64;100.00
78719;BME280;68046;53.334;9.538;2024-02-21T06:41:03;101309.41;;;7.62;100.00
78719;BME280;68046;53.334;9.538;2024-02-21T06:43:28;101306.09;;;7.66;100.00
78719;BME280;68046;53.334;9.538;2024-02-21T06:45:54;101309.53;;;7.65;100.00
78719;BME280;68046;53.334;9.538;2024-02-21T06:48:19;101306.97;;;7.66;100.00
78719;BME280;68046;53.334;9.538;2024-02-21T06:50:45;101302.72;;;7.68;100.00
78719;BME280;68046;53.334;9.538;2024-02-21T06:53:11;101304.38;;;7.66;100.00
78719;BME280;68046;53.334;9.538;2024-02-21T06:55:36;101304.50;;;7.69;100.00
78719;BME280;68046;53.334;9.538;2024-02-21T06:58:03;101303.44;;;7.64;100.00
78719;BME280;68046;53.334;9.538;2024-02-21T07:00:29;101306.06;;;7.64;100.00
78719;BME280;68046;53.334;9.538;2024-02-21T07:02:54;101313.88;;;7.64;100.00
78719;BME280;68046;53.334;9.538;2024-02-21T07:05:20;101310.47;;;7.67;100.00
78719;BME280;68046;53.334;9.538;2024-02-21T07:07:45;101309.59;;;7.66;100.00
78719;BME280;68046;53.334;9.538;2024-02-21T07:10:11;101315.66;;;7.65;100.00
78719;BME280;68046;53.334;9.538;2024-02-21T07:12:36;101321.72;;;7.64;100.00
78719;BME280;68046;53.334;9.538;2024-02-21T07:15:04;101319.28;;;7.69;100.00
78719;BME280;68046;53.334;9.538;2024-02-21T07:17:30;101329.84;;;7.72;100.00
78719;BME280;68046;53.334;9.538;2024-02-21T07:19:55;101326.16;;;7.67;100.00
78719;BME280;68046;53.334;9.538;2024-02-21T07:22:21;101334.09;;;7.70;100.00
78719;BME280;68046;53.334;9.538;2024-02-21T07:24:46;101332.28;;;7.67;100.00
78719;BME280;68046;53.334;9.538;2024-02-21T07:27:14;101328.97;;;7.71;100.00
78719;BME280;68046;53.334;9.538;2024-02-21T07:29:40;101327.13;;;7.69;100.00
78719;BME280;68046;53.334;9.538;2024-02-21T07:32:07;101320.00;;;7.65;100.00
78719;BME280;68046;53.334;9.538;2024-02-21T07:34:32;101319.09;;;7.64;100.00
78719;BME280;68046;53.334;9.538;2024-02-21T07:36:58;101327.06;;;7.67;100.00
78719;BME280;68046;53.334;9.538;2024-02-21T07:39:23;101320.88;;;7.65;100.00
78719;BME280;68046;53.334;9.538;2024-02-21T07:41:49;101321.91;;;7.69;100.00
78719;BME280;68046;53.334;9.538;2024-02-21T07:44:14;101328.00;;;7.69;100.00
78719;BME280;68046;53.334;9.538;2024-02-21T07:46:40;101322.91;;;7.72;100.00
78719;BME280;68046;53.334;9.538;2024-02-21T07:49:07;101327.38;;;7.75;100.00
78719;BME280;68046;53.334;9.538;2024-02-21T07:51:32;101319.50;;;7.73;100.00
78719;BME280;68046;53.334;9.538;2024-02-21T07:53:58;101327.31;;;7.73;100.00
78719;BME280;68046;53.334;9.538;2024-02-21T07:56:23;101321.19;;;7.73;100.00
78719;BME280;68046;53.334;9.538;2024-02-21T07:58:49;101322.09;;;7.73;100.00
78719;BME280;68046;53.334;9.538;2024-02-21T08:01:18;101319.50;;;7.73;100.00
78719;BME280;68046;53.334;9.538;2024-02-21T08:03:44;101312.72;;;7.78;100.00
78719;BME280;68046;53.334;9.538;2024-02-21T08:06:11;101309.31;;;7.79;100.00
78719;BME280;68046;53.334;9.538;2024-02-21T08:08:37;101301.59;;;7.83;100.00
78719;BME280;68046;53.334;9.538;2024-02-21T08:11:03;101301.63;;;7.84;100.00
78719;BME280;68046;53.334;9.538;2024-02-21T08:13:28;101300.63;;;7.81;100.00
78719;BME280;68046;53.334;9.538;2024-02-21T08:15:54;101302.47;;;7.83;100.00
78719;BME280;68046;53.334;9.538;2024-02-21T08:18:19;101300.69;;;7.82;100.00
78719;BME280;68046;53.334;9.538;2024-02-21T08:20:45;101299.09;;;7.86;100.00
78719;BME280;68046;53.334;9.538;2024-02-21T08:23:12;101300.88;;;7.87;100.00
78719;BME280;68046;53.334;9.538;2024-02-21T08:25:37;101289.59;;;7.88;100.00
78719;BME280;68046;53.334;9.538;2024-02-21T08:28:04;101288.66;;;7.86;100.00
78719;BME280;68046;53.334;9.538;2024-02-21T08:30:30;101288.72;;;7.87;100.00
78719;BME280;68046;53.334;9.538;2024-02-21T08:32:55;101289.47;;;7.85;100.00
78719;BME280;68046;53.334;9.538;2024-02-21T08:35:21;101285.28;;;7.88;100.00
78719;BME280;68046;53.334;9.538;2024-02-21T08:37:46;101279.34;;;7.92;100.00
78719;BME280;68046;53.334;9.538;2024-02-21T08:40:14;101283.56;;;7.89;100.00
78719;BME280;68046;53.334;9.538;2024-02-21T08:42:39;101284.38;;;7.88;100.00
78719;BME280;68046;53.334;9.538;2024-02-21T08:45:05;101289.72;;;7.91;100.00
78719;BME280;68046;53.334;9.538;2024-02-21T08:47:31;101280.25;;;7.93;100.00
78719;BME280;68046;53.334;9.538;2024-02-21T08:49:57;101275.13;;;7.96;100.00
78719;BME280;68046;53.334;9.538;2024-02-21T08:52:22;101275.00;;;7.93;100.00
78719;BME280;68046;53.334;9.538;2024-02-21T08:54:48;101275.09;;;7.94;100.00
78719;BME280;68046;53.334;9.538;2024-02-21T08:57:14;101279.22;;;7.89;100.00
78719;BME280;68046;53.334;9.538;2024-02-21T08:59:40;101275.84;;;7.92;100.00
78719;BME280;68046;53.334;9.538;2024-02-21T09:02:05;101265.44;;;7.93;100.00
78719;BME280;68046;53.334;9.538;2024-02-21T09:04:31;101259.22;;;7.90;100.00
78719;BME280;68046;53.334;9.538;2024-02-21T09:06:56;101267.19;;;7.93;100.00
78719;BME280;68046;53.334;9.538;2024-02-21T09:09:22;101275.13;;;7.96;100.00
78719;BME280;68046;53.334;9.538;2024-02-21T09:11:47;101275.00;;;7.93;100.00
78719;BME280;68046;53.334;9.538;2024-02-21T09:14:14;101264.66;;;7.94;100.00
78719;BME280;68046;53.334;9.538;2024-02-21T09:16:40;101282.00;;;7.94;100.00
78719;BME280;68046;53.334;9.538;2024-02-21T09:19:05;101271.63;;;7.95;100.00
78719;BME280;68046;53.334;9.538;2024-02-21T09:21:31;101277.63;;;7.93;100.00
78719;BME280;68046;53.334;9.538;2024-02-21T09:23:56;101263.81;;;7.95;100.00
78719;BME280;68046;53.334;9.538;2024-02-21T09:26:22;101265.69;;;7.99;100.00
78719;BME280;68046;53.334;9.538;2024-02-21T09:28:47;101252.59;;;7.98;100.00
78719;BME280;68046;53.334;9.538;2024-02-21T09:31:14;101259.72;;;8.02;100.00
78719;BME280;68046;53.334;9.538;2024-02-21T09:33:39;101252.59;;;7.98;100.00
78719;BME280;68046;53.334;9.538;2024-02-21T09:36:06;101248.28;;;8.00;100.00
78719;BME280;68046;53.334;9.538;2024-02-21T09:38:31;101251.81;;;8.00;100.00
78719;BME280;68046;53.334;9.538;2024-02-21T09:40:59;101243.28;;;8.05;100.00
78719;BME280;68046;53.334;9.538;2024-02-21T09:43:25;101237.28;;;8.07;100.00
78719;BME280;68046;53.334;9.538;2024-02-21T09:45:54;101241.63;;;8.07;100.00
78719;BME280;68046;53.334;9.538;2024-02-21T09:48:30;101245.34;;;8.13;100.00
78719;BME280;68046;53.334;9.538;2024-02-21T09:50:58;101236.63;;;8.13;100.00
78719;BME280;68046;53.334;9.538;2024-02-21T09:53:24;101240.97;;;8.12;100.00
78719;BME280;68046;53.334;9.538;2024-02-21T09:55:50;101234.94;;;8.15;100.00
78719;BME280;68046;53.334;9.538;2024-02-21T09:58:16;101235.06;;;8.18;100.00
78719;BME280;68046;53.334;9.538;2024-02-21T10:00:42;101234.31;;;8.20;100.00
78719;BME280;68046;53.334;9.538;2024-02-21T10:03:07;101230.88;;;8.21;100.00
78719;BME280;68046;53.334;9.538;2024-02-21T10:05:34;101230.88;;;8.21;100.00
78719;BME280;68046;53.334;9.538;2024-02-21T10:08:00;101224.81;;;8.22;100.00
78719;BME280;68046;53.334;9.538;2024-02-21T10:10:25;101228.50;;;8.28;100.00
78719;BME280;68046;53.334;9.538;2024-02-21T10:12:51;101222.34;;;8.27;100.00
78719;BME280;68046;53.334;9.538;2024-02-21T10:15:20;101218.03;;;8.28;100.00
78719;BME280;68046;53.334;9.538;2024-02-21T10:17:46;101227.66;;;8.29;100.00
78719;BME280;68046;53.334;9.538;2024-02-21T10:20:12;101219.81;;;8.29;100.00
78719;BME280;68046;53.334;9.538;2024-02-21T10:22:39;101207.72;;;8.31;100.00
78719;BME280;68046;53.334;9.538;2024-02-21T10:25:08;101213.88;;;8.33;100.00
78719;BME280;68046;53.334;9.538;2024-02-21T10:27:33;101213.88;;;8.33;100.00
78719;BME280;68046;53.334;9.538;2024-02-21T10:29:59;101221.16;;;8.40;100.00
78719;BME280;68046;53.334;9.538;2024-02-21T10:32:24;101205.25;;;8.35;100.00
78719;BME280;68046;53.334;9.538;2024-02-21T10:34:50;101201.88;;;8.38;100.00
78719;BME280;68046;53.334;9.538;2024-02-21T10:37:25;101199.38;;;8.39;100.00
78719;BME280;68046;53.334;9.538;2024-02-21T10:39:53;101199.19;;;8.36;100.00
78719;BME280;68046;53.334;9.538;2024-02-21T10:42:21;101193.94;;;8.36;100.00
78719;BME280;68046;53.334;9.538;2024-02-21T10:44:50;101197.41;;;8.35;100.00
78719;BME280;68046;53.334;9.538;2024-02-21T10:47:16;101198.19;;;8.33;100.00
78719;BME280;68046;53.334;9.538;2024-02-21T10:49:44;101197.38;;;8.34;100.00
78719;BME280;68046;53.334;9.538;2024-02-21T10:52:24;101197.25;;;8.31;100.00
78719;BME280;68046;53.334;9.538;2024-02-21T10:54:55;101194.75;;;8.34;100.00
78719;BME280;68046;53.334;9.538;2024-02-21T10:57:21;101192.94;;;8.33;100.00
78719;BME280;68046;53.334;9.538;2024-02-21T10:59:48;101192.84;;;8.30;100.00
78719;BME280;68046;53.334;9.538;2024-02-21T11:02:13;101198.78;;;8.25;100.00
78719;BME280;68046;53.334;9.538;2024-02-21T11:04:40;101190.00;;;8.23;100.00
78719;BME280;68046;53.334;9.538;2024-02-21T11:07:06;101196.19;;;8.25;100.00
78719;BME280;68046;53.334;9.538;2024-02-21T11:09:33;101199.63;;;8.24;100.00
78719;BME280;68046;53.334;9.538;2024-02-21T11:12:02;101197.84;;;8.23;100.00
78719;BME280;68046;53.334;9.538;2024-02-21T11:14:28;101182.03;;;8.20;100.00
78719;BME280;68046;53.334;9.538;2024-02-21T11:16:54;101181.91;;;8.17;100.00
78719;BME280;68046;53.334;9.538;2024-02-21T11:19:21;101174.19;;;8.20;100.00
78719;BME280;68046;53.334;9.538;2024-02-21T11:21:46;101174.03;;;8.16;100.00
78719;BME280;68046;53.334;9.538;2024-02-21T11:24:12;101164.34;;;8.13;100.00
78719;BME280;68046;53.334;9.538;2024-02-21T11:26:38;101162.69;;;8.15;100.00
78719;BME280;68046;53.334;9.538;2024-02-21T11:29:05;101161.75;;;8.13;100.00
78719;BME280;68046;53.334;9.538;2024-02-21T11:31:38;101160.91;;;8.14;100.00
78719;BME280;68046;53.334;9.538;2024-02-21T11:34:04;101156.53;;;8.13;100.00
78719;BME280;68046;53.334;9.538;2024-02-21T11:36:30;101148.56;;;8.10;100.00
78719;BME280;68046;53.334;9.538;2024-02-21T11:39:03;101148.56;;;8.10;100.00
78719;BME280;68046;53.334;9.538;2024-02-21T11:41:29;101136.56;;;8.15;100.00
78719;BME280;68046;53.334;9.538;2024-02-21T11:43:54;101132.03;;;8.11;100.00
78719;BME280;68046;53.334;9.538;2024-02-21T11:46:21;101128.53;;;8.11;100.00
78719;BME280;68046;53.334;9.538;2024-02-21T11:48:47;101126.94;;;8.14;100.00
78719;BME280;68046;53.334;9.538;2024-02-21T11:51:21;101120.91;;;8.15;100.00
78719;BME280;68046;53.334;9.538;2024-02-21T11:53:47;101110.31;;;8.12;100.00
78719;BME280;68046;53.334;9.538;2024-02-21T11:56:13;101107.75;;;8.14;100.00
78719;BME280;68046;53.334;9.538;2024-02-21T11:58:39;101105.56;;;8.24;100.00
78719;BME280;68046;53.334;9.538;2024-02-21T12:01:04;101100.22;;;8.21;100.00
78719;BME280;68046;53.334;9.538;2024-02-21T12:03:31;101104.72;;;8.25;100.00
78719;BME280;68046;53.334;9.538;2024-02-21T12:05:57;101082.19;;;8.29;100.00
78719;BME280;68046;53.334;9.538;2024-02-21T12:08:23;101086.84;;;8.38;100.00
78719;BME280;68046;53.334;9.538;2024-02-21T12:10:48;101085.91;;;8.36;100.00
78719;BME280;68046;53.334;9.538;2024-02-21T12:13:14;101087.88;;;8.41;100.00
78719;BME280;68046;53.334;9.538;2024-02-21T12:15:39;101079.56;;;8.52;100.00
78719;BME280;68046;53.334;9.538;2024-02-21T12:18:05;101084.91;;;8.56;100.00
78719;BME280;68046;53.334;9.538;2024-02-21T12:20:32;101073.63;;;8.57;100.00
78719;BME280;68046;53.334;9.538;2024-02-21T12:23:00;101078.38;;;8.69;100.00
78719;BME280;68046;53.334;9.538;2024-02-21T12:25:25;101074.22;;;8.74;100.00
78719;BME280;68046;53.334;9.538;2024-02-21T12:27:51;101071.69;;;8.77;100.00
78719;BME280;68046;53.334;9.538;2024-02-21T12:30:16;101068.53;;;8.87;100.00
78719;BME280;68046;53.334;9.538;2024-02-21T12:32:42;101064.34;;;8.91;100.00
78719;BME280;68046;53.334;9.538;2024-02-21T12:35:08;101053.97;;;8.94;100.00
78719;BME280;68046;53.334;9.538;2024-02-21T12:37:35;101059.19;;;8.94;100.00
78719;BME280;68046;53.334;9.538;2024-02-21T12:40:00;101054.88;;;8.96;100.00
78719;BME280;68046;53.334;9.538;2024-02-21T12:42:26;101049.53;;;8.91;100.00
78719;BME280;68046;53.334;9.538;2024-02-21T12:44:52;101047.00;;;8.95;100.00
78719;BME280;68046;53.334;9.538;2024-02-21T12:47:18;101044.38;;;8.95;100.00